Time;durP1;ratioP1;P1;durP2;ratioP2;P2;SDS_P1;SDS_P2;PMS_P1;PMS_P2;Temp;Humidity;BMP_temperature;BMP_pressure;BME280_temperature;BME280_humidity;BME280_pressure;Samples;Min_cycle;Max_cycle;Signal;HPM_P1;HPM_P2
2022/03/05 00:01:24;;;;;;;6.13;4.07;;;11.70;52.90;;;;;;5097032;28;20172;-75
2022/03/05 00:03:50;;;;;;;4.93;4.10;;;11.70;52.90;;;;;;5096860;28;20299;-76
2022/03/05 00:06:17;;;;;;;5.13;4.00;;;11.70;53.00;;;;;;5096678;28;20177;-75
2022/03/05 00:08:43;;;;;;;4.93;4.03;;;11.70;53.00;;;;;;5097780;28;20175;-75
2022/03/05 00:11:08;;;;;;;5.10;3.97;;;11.70;53.00;;;;;;5097496;28;20168;-75
2022/03/05 00:13:36;;;;;;;6.33;4.33;;;11.70;53.00;;;;;;5097279;28;20177;-75
2022/03/05 00:16:02;;;;;;;6.00;4.30;;;11.70;53.00;;;;;;5096946;28;20191;-75
2022/03/05 00:18:28;;;;;;;4.70;4.10;;;11.70;53.10;;;;;;5097153;28;20206;-75
2022/03/05 00:20:54;;;;;;;4.80;4.23;;;11.70;53.00;;;;;;5096840;28;20183;-75
2022/03/05 00:23:20;;;;;;;4.80;4.30;;;11.70;53.10;;;;;;5097210;28;20196;-75
2022/03/05 00:26:04;;;;;;;5.63;3.90;;;11.70;53.10;;;;;;5096456;28;20170;-75
2022/03/05 00:28:30;;;;;;;4.83;4.17;;;11.60;53.10;;;;;;5097166;28;20174;-75
2022/03/05 00:30:58;;;;;;;5.50;4.20;;;11.60;53.20;;;;;;5097337;28;20181;-75
2022/03/05 00:33:24;;;;;;;4.93;3.93;;;11.70;53.20;;;;;;5096574;28;20457;-75
2022/03/05 00:35:55;;;;;;;4.63;4.07;;;11.70;53.30;;;;;;5096969;28;20604;-75
2022/03/05 00:38:21;;;;;;;5.40;3.97;;;11.60;53.20;;;;;;5097018;28;20176;-75
2022/03/05 00:40:47;;;;;;;5.93;4.30;;;11.60;53.20;;;;;;5096290;28;20198;-75
2022/03/05 00:43:14;;;;;;;5.53;4.00;;;11.60;53.30;;;;;;5096669;28;20196;-75
2022/03/05 00:45:40;;;;;;;5.17;4.17;;;11.60;53.20;;;;;;5096698;28;20194;-75
2022/03/05 00:48:07;;;;;;;5.23;3.90;;;11.60;53.30;;;;;;5096832;28;20369;-75
2022/03/05 00:50:33;;;;;;;4.77;3.90;;;11.60;53.30;;;;;;5096734;28;20594;-76
2022/03/05 00:52:59;;;;;;;4.00;3.60;;;11.60;53.30;;;;;;5097129;28;20218;-76
2022/03/05 00:55:25;;;;;;;5.23;4.10;;;11.60;53.30;;;;;;5096251;28;20166;-76
2022/03/05 00:57:51;;;;;;;6.20;4.13;;;11.60;53.40;;;;;;5096728;28;20563;-76
2022/03/05 01:00:17;;;;;;;4.57;3.87;;;11.60;53.40;;;;;;5096411;28;20179;-75
2022/03/05 01:02:42;;;;;;;6.00;4.20;;;11.60;53.40;;;;;;5097132;28;20483;-75
2022/03/05 01:05:10;;;;;;;5.30;4.10;;;11.60;53.40;;;;;;5096744;28;20193;-75
2022/03/05 01:07:36;;;;;;;5.30;3.97;;;11.60;53.40;;;;;;5097194;28;20545;-75
2022/03/05 01:10:04;;;;;;;4.43;3.90;;;11.60;53.40;;;;;;5096488;28;20205;-75
2022/03/05 01:12:29;;;;;;;5.00;4.00;;;11.50;53.40;;;;;;5097262;28;20264;-75
2022/03/05 01:14:57;;;;;;;4.50;3.80;;;11.60;53.50;;;;;;5096762;28;20270;-75
2022/03/05 01:17:23;;;;;;;6.40;4.40;;;11.50;53.40;;;;;;5096713;28;20181;-75
2022/03/05 01:19:49;;;;;;;4.40;4.00;;;11.50;53.40;;;;;;5096734;28;20331;-75
2022/03/05 01:22:15;;;;;;;5.20;4.03;;;11.50;53.40;;;;;;5096939;28;20297;-75
2022/03/05 01:24:41;;;;;;;4.73;3.73;;;11.50;53.40;;;;;;5096329;28;20207;-75
2022/03/05 01:27:06;;;;;;;4.50;3.80;;;11.50;53.40;;;;;;5097339;28;20178;-75
2022/03/05 01:29:32;;;;;;;4.63;3.93;;;11.50;53.50;;;;;;5096356;28;20173;-75
2022/03/05 01:31:58;;;;;;;5.67;4.50;;;11.50;53.50;;;;;;5096015;28;20177;-75
2022/03/05 01:34:29;;;;;;;5.07;3.90;;;11.50;53.50;;;;;;5096230;28;20196;-75
2022/03/05 01:36:55;;;;;;;5.17;4.13;;;11.50;53.50;;;;;;5100178;28;20186;-75
2022/03/05 01:39:20;;;;;;;4.63;3.97;;;11.50;53.50;;;;;;5100147;28;20175;-75
2022/03/05 01:41:48;;;;;;;4.87;4.03;;;11.50;53.50;;;;;;5100097;28;20579;-76
2022/03/05 01:44:15;;;;;;;4.47;3.83;;;11.50;53.50;;;;;;5100234;28;20224;-75
2022/03/05 01:46:40;;;;;;;4.77;4.00;;;11.50;53.50;;;;;;5100437;28;20169;-75
2022/03/05 01:49:11;;;;;;;5.20;3.93;;;11.50;53.50;;;;;;5100005;28;20235;-75
2022/03/05 01:51:38;;;;;;;4.60;3.43;;;11.50;53.50;;;;;;5099834;28;20179;-75
2022/03/05 01:54:13;;;;;;;4.20;3.63;;;11.40;53.40;;;;;;5100281;28;20173;-75
2022/03/05 01:56:40;;;;;;;4.60;3.63;;;11.40;53.40;;;;;;5100380;28;20556;-75
2022/03/05 01:59:06;;;;;;;4.37;3.70;;;11.40;53.40;;;;;;5099439;28;20163;-75
2022/03/05 02:01:32;;;;;;;3.90;3.50;;;11.40;53.40;;;;;;5099922;28;20212;-76
2022/03/05 02:03:59;;;;;;;4.93;4.10;;;11.40;53.40;;;;;;5099504;28;20641;-75
2022/03/05 02:06:25;;;;;;;4.57;4.00;;;11.40;53.40;;;;;;5099372;28;20182;-75
2022/03/05 02:09:28;;;;;;;4.93;4.23;;;11.40;53.40;;;;;;5089904;28;20176;-75
2022/03/05 02:11:56;;;;;;;5.23;4.40;;;11.40;53.30;;;;;;5098921;28;20168;-75
2022/03/05 02:14:29;;;;;;;5.47;4.17;;;11.40;53.30;;;;;;5100072;28;20161;-75
2022/03/05 02:16:55;;;;;;;5.10;3.73;;;11.40;53.30;;;;;;5098807;28;20275;-75
2022/03/05 02:19:21;;;;;;;4.30;3.90;;;11.30;53.30;;;;;;5098908;28;20274;-75
2022/03/05 02:21:47;;;;;;;4.63;3.93;;;11.30;53.20;;;;;;5099500;28;20527;-75
2022/03/05 02:24:31;;;;;;;5.23;4.07;;;11.30;53.30;;;;;;5099658;28;20302;-75
2022/03/05 02:27:02;;;;;;;4.87;4.00;;;11.30;53.30;;;;;;5099432;28;20270;-75
2022/03/05 02:29:30;;;;;;;5.37;4.37;;;11.30;53.20;;;;;;5098968;28;20198;-75
2022/03/05 02:32:34;;;;;;;4.07;3.67;;;11.30;53.30;;;;;;5099170;28;20170;-75
2022/03/05 02:35:00;;;;;;;4.57;3.97;;;11.30;53.30;;;;;;5099087;28;20275;-75
2022/03/05 02:37:25;;;;;;;5.47;4.50;;;11.30;53.20;;;;;;5099701;28;20280;-75
2022/03/05 02:39:51;;;;;;;5.30;4.47;;;11.30;53.30;;;;;;5099200;28;20164;-75
2022/03/05 02:42:17;;;;;;;4.53;3.80;;;11.30;53.30;;;;;;5099115;28;20172;-75
2022/03/05 02:44:43;;;;;;;4.90;4.37;;;11.30;53.20;;;;;;5098691;28;20199;-75
2022/03/05 02:47:09;;;;;;;4.67;3.70;;;11.30;53.30;;;;;;5098253;28;20167;-75
2022/03/05 02:49:35;;;;;;;4.33;3.93;;;11.30;53.30;;;;;;5098793;28;20225;-75
2022/03/05 02:52:03;;;;;;;6.53;4.27;;;11.30;53.30;;;;;;5099071;28;20169;-75
2022/03/05 02:54:29;;;;;;;4.50;3.27;;;11.20;53.30;;;;;;5099314;28;20159;-75
2022/03/05 02:56:55;;;;;;;5.10;4.23;;;11.20;53.20;;;;;;5098539;28;20415;-75
2022/03/05 02:59:20;;;;;;;4.50;3.80;;;11.30;53.30;;;;;;5098471;28;20174;-75
2022/03/05 03:01:51;;;;;;;4.73;3.83;;;11.20;53.30;;;;;;5098894;28;20210;-75
2022/03/05 03:04:19;;;;;;;5.17;4.20;;;11.20;53.30;;;;;;5098671;28;20366;-75
2022/03/05 03:06:45;;;;;;;4.73;3.80;;;11.20;53.30;;;;;;5099057;28;20169;-75
2022/03/05 03:09:11;;;;;;;4.63;3.83;;;11.20;53.30;;;;;;5099254;28;20174;-75
2022/03/05 03:11:42;;;;;;;5.27;3.87;;;11.20;53.30;;;;;;5098096;28;20168;-75
2022/03/05 03:14:08;;;;;;;5.20;3.87;;;11.20;53.40;;;;;;5098649;28;20178;-75
2022/03/05 03:16:33;;;;;;;4.60;3.73;;;11.20;53.40;;;;;;5098578;28;20167;-75
2022/03/05 03:18:59;;;;;;;4.93;4.00;;;11.20;53.40;;;;;;5098928;28;20167;-75
2022/03/05 03:21:28;;;;;;;4.10;3.50;;;11.20;53.80;;;;;;5098354;28;20440;-75
2022/03/05 03:23:54;;;;;;;5.07;4.03;;;11.20;53.40;;;;;;5098114;28;20201;-75
2022/03/05 03:26:19;;;;;;;4.17;3.70;;;11.20;53.50;;;;;;5097843;28;20190;-75
2022/03/05 03:28:45;;;;;;;4.67;3.60;;;11.20;53.40;;;;;;5098185;28;20532;-75
2022/03/05 03:31:13;;;;;;;5.67;3.87;;;11.10;53.40;;;;;;5097810;28;20175;-75
2022/03/05 03:33:39;;;;;;;4.33;3.83;;;11.10;53.40;;;;;;5098433;28;20171;-75
2022/03/05 03:36:05;;;;;;;4.73;3.97;;;11.10;53.30;;;;;;5097731;28;20200;-76
2022/03/05 03:38:30;;;;;;;4.53;3.80;;;11.10;53.40;;;;;;5097808;28;20176;-76
2022/03/05 03:40:57;;;;;;;4.50;3.53;;;11.10;53.30;;;;;;5097553;28;20303;-75
2022/03/05 03:43:23;;;;;;;4.47;3.63;;;11.10;53.40;;;;;;5097565;28;20237;-76
2022/03/05 03:45:48;;;;;;;4.73;3.80;;;11.10;53.40;;;;;;5098209;28;20206;-75
2022/03/05 03:48:14;;;;;;;4.30;3.63;;;11.10;53.40;;;;;;5097799;28;20189;-74
2022/03/05 03:50:40;;;;;;;4.47;3.83;;;11.10;53.40;;;;;;5098641;28;20182;-75
2022/03/05 03:53:05;;;;;;;4.77;3.97;;;11.10;53.40;;;;;;5097912;28;20166;-75
2022/03/05 03:55:31;;;;;;;5.80;4.23;;;11.10;53.40;;;;;;5098745;28;20171;-76
2022/03/05 03:57:57;;;;;;;4.50;4.00;;;11.10;53.40;;;;;;5097186;28;20228;-75
2022/03/05 04:00:25;;;;;;;4.90;4.07;;;11.10;53.50;;;;;;5097044;28;20263;-76
2022/03/05 04:02:50;;;;;;;4.07;3.67;;;11.00;53.40;;;;;;5097404;28;20168;-75
2022/03/05 04:05:16;;;;;;;4.40;3.90;;;11.00;53.40;;;;;;5098212;28;20283;-74
2022/03/05 04:10:33;;;;;;;5.77;3.80;;;11.00;53.40;;;;;;5098036;28;20215;-75
2022/03/05 04:12:58;;;;;;;4.43;3.60;;;11.00;53.50;;;;;;5098129;28;20240;-75
2022/03/05 04:15:24;;;;;;;5.67;4.10;;;11.00;53.50;;;;;;5097952;28;20175;-76
2022/03/05 04:17:50;;;;;;;5.00;3.80;;;11.00;53.50;;;;;;5097437;28;20181;-76
2022/03/05 04:20:21;;;;;;;4.50;3.60;;;11.00;53.50;;;;;;5097618;28;20149;-76
2022/03/05 04:22:47;;;;;;;4.70;3.83;;;11.00;53.50;;;;;;5097508;28;20175;-75
2022/03/05 04:25:13;;;;;;;4.13;3.50;;;11.00;53.50;;;;;;5096947;28;20293;-76
2022/03/05 04:27:39;;;;;;;4.70;3.80;;;11.00;53.50;;;;;;5097744;28;20181;-75
2022/03/05 04:30:20;;;;;;;4.90;3.57;;;11.00;53.50;;;;;;5097991;28;20506;-75
2022/03/05 04:32:46;;;;;;;4.17;3.50;;;11.00;53.60;;;;;;5098100;28;20169;-76
2022/03/05 04:35:12;;;;;;;5.00;3.97;;;11.00;53.50;;;;;;5096571;28;20175;-76
2022/03/05 04:37:38;;;;;;;4.77;3.70;;;11.00;53.60;;;;;;5096920;28;20241;-75
2022/03/05 04:40:05;;;;;;;4.47;3.63;;;10.90;53.50;;;;;;5097660;28;20167;-75
2022/03/05 04:42:31;;;;;;;4.17;3.70;;;10.90;53.50;;;;;;5097726;28;20155;-75
2022/03/05 04:44:56;;;;;;;4.07;3.40;;;10.90;53.50;;;;;;5097357;28;20551;-75
2022/03/05 04:47:22;;;;;;;4.60;3.70;;;10.90;53.50;;;;;;5096664;28;20163;-75
2022/03/05 04:49:49;;;;;;;4.07;3.43;;;10.90;53.60;;;;;;5096617;28;20244;-76
2022/03/05 04:52:15;;;;;;;4.33;3.50;;;10.90;53.50;;;;;;5097040;28;20336;-75
2022/03/05 04:54:40;;;;;;;4.60;3.57;;;10.90;53.50;;;;;;5097040;28;20232;-75
2022/03/05 04:57:06;;;;;;;5.30;3.70;;;10.90;53.60;;;;;;5097197;28;20258;-75
2022/03/05 04:59:32;;;;;;;5.27;3.63;;;10.90;53.60;;;;;;5097192;28;20172;-75
2022/03/05 05:01:58;;;;;;;5.13;3.90;;;10.90;53.50;;;;;;5096827;28;20445;-75
2022/03/05 05:04:24;;;;;;;5.30;4.27;;;10.90;53.50;;;;;;5096429;28;20230;-75
2022/03/05 05:06:49;;;;;;;4.80;3.73;;;10.90;53.50;;;;;;5097105;28;20184;-75
2022/03/05 05:09:22;;;;;;;4.93;4.10;;;10.90;53.50;;;;;;5096623;28;20172;-76
2022/03/05 05:11:48;;;;;;;4.37;3.50;;;10.80;53.50;;;;;;5100379;28;20171;-76
2022/03/05 05:14:14;;;;;;;4.30;3.70;;;10.80;53.80;;;;;;5100947;28;20734;-76
2022/03/05 05:16:39;;;;;;;5.27;4.03;;;10.80;53.40;;;;;;5100407;28;20224;-75
2022/03/05 05:21:50;;;;;;;4.77;3.90;;;10.80;53.30;;;;;;5100951;28;20178;-75
2022/03/05 05:24:16;;;;;;;4.87;3.73;;;10.80;53.40;;;;;;5100355;28;20202;-75
2022/03/05 05:26:59;;;;;;;4.87;3.87;;;10.80;53.40;;;;;;5100620;28;20197;-76
2022/03/05 05:29:25;;;;;;;6.40;4.20;;;10.70;53.30;;;;;;5100608;28;20171;-75
2022/03/05 05:31:50;;;;;;;4.70;3.90;;;10.70;53.30;;;;;;5100026;28;20179;-75
2022/03/05 05:34:17;;;;;;;4.80;3.73;;;10.70;53.20;;;;;;5100628;28;20517;-76
2022/03/05 05:36:43;;;;;;;4.10;3.63;;;10.70;53.30;;;;;;5100234;28;20257;-76
2022/03/05 05:39:11;;;;;;;5.30;3.90;;;10.70;53.20;;;;;;5099592;28;20170;-75
2022/03/05 05:41:38;;;;;;;5.60;4.27;;;10.70;53.30;;;;;;5099861;28;20525;-74
2022/03/05 05:44:05;;;;;;;6.13;3.90;;;10.70;53.20;;;;;;5100749;28;20183;-75
2022/03/05 05:46:38;;;;;;;6.13;4.27;;;10.70;53.30;;;;;;5100248;28;20599;-75
2022/03/05 05:49:04;;;;;;;4.70;3.93;;;10.70;53.30;;;;;;5099953;28;20174;-75
2022/03/05 05:51:32;;;;;;;5.43;4.07;;;10.70;53.30;;;;;;5100554;28;20186;-75
2022/03/05 05:53:57;;;;;;;5.33;4.23;;;10.70;53.30;;;;;;5099909;28;20179;-75
2022/03/05 05:56:24;;;;;;;5.10;4.03;;;10.70;53.20;;;;;;5100157;28;20172;-75
2022/03/05 05:58:50;;;;;;;6.43;3.93;;;10.70;53.30;;;;;;5099583;28;20182;-75
2022/03/05 06:01:17;;;;;;;5.27;3.93;;;10.70;53.20;;;;;;5099270;28;20235;-76
2022/03/05 06:03:44;;;;;;;5.03;4.00;;;10.60;53.30;;;;;;5099305;28;20210;-75
2022/03/05 06:06:13;;;;;;;5.63;4.00;;;10.60;53.20;;;;;;5099536;28;20256;-75
2022/03/05 06:08:39;;;;;;;6.07;3.97;;;10.60;53.30;;;;;;5099168;28;20340;-75
2022/03/05 06:11:04;;;;;;;5.20;4.03;;;10.60;53.30;;;;;;5099367;28;20531;-75
2022/03/05 06:13:30;;;;;;;5.43;4.07;;;10.60;53.30;;;;;;5099376;28;20709;-76
2022/03/05 06:15:56;;;;;;;4.60;3.80;;;10.60;53.30;;;;;;5098937;28;20576;-75
2022/03/05 06:18:22;;;;;;;4.30;3.27;;;10.60;53.30;;;;;;5099713;28;20631;-75
2022/03/05 06:20:48;;;;;;;4.67;3.63;;;10.60;53.30;;;;;;5099448;28;20236;-75
2022/03/05 06:23:13;;;;;;;5.23;3.97;;;10.60;53.30;;;;;;5098086;28;20179;-75
2022/03/05 06:25:57;;;;;;;5.33;4.27;;;10.60;53.30;;;;;;5099033;28;20171;-75
2022/03/05 06:28:22;;;;;;;4.60;3.70;;;10.60;53.30;;;;;;5098464;28;20446;-75
2022/03/05 06:30:48;;;;;;;5.93;4.27;;;10.60;53.30;;;;;;5098967;28;20718;-75
2022/03/05 06:33:14;;;;;;;4.60;3.70;;;10.60;53.30;;;;;;5098572;28;20475;-75
2022/03/05 06:35:45;;;;;;;5.77;3.60;;;10.60;53.30;;;;;;5099037;28;20284;-75
2022/03/05 06:38:11;;;;;;;4.47;3.47;;;10.60;53.30;;;;;;5099061;28;20244;-75
2022/03/05 06:40:37;;;;;;;4.83;3.67;;;10.60;53.30;;;;;;5099303;28;20183;-75
2022/03/05 06:43:03;;;;;;;4.93;3.67;;;10.60;53.30;;;;;;5098374;28;20164;-75
2022/03/05 06:45:29;;;;;;;5.77;3.93;;;10.60;53.30;;;;;;5098475;28;20214;-75
2022/03/05 06:47:55;;;;;;;5.73;4.07;;;10.60;53.40;;;;;;5098627;28;20166;-75
2022/03/05 06:50:21;;;;;;;4.43;3.90;;;10.70;53.40;;;;;;5098367;28;20436;-75
2022/03/05 06:52:47;;;;;;;4.17;3.77;;;10.70;53.40;;;;;;5098175;28;20461;-75
2022/03/05 06:55:19;;;;;;;4.47;3.57;;;10.80;53.20;;;;;;5099104;28;20171;-75
2022/03/05 06:57:45;;;;;;;5.00;3.70;;;10.90;53.10;;;;;;5098226;28;20205;-75
2022/03/05 07:00:14;;;;;;;4.30;3.73;;;11.00;52.90;;;;;;5097758;28;20176;-75
2022/03/05 07:02:40;;;;;;;6.00;3.83;;;11.00;52.80;;;;;;5098225;28;20546;-75
2022/03/05 07:05:09;;;;;;;5.47;3.60;;;11.10;52.50;;;;;;5097610;28;20209;-75
2022/03/05 07:07:34;;;;;;;4.97;3.40;;;11.20;52.40;;;;;;5098401;28;20718;-75
2022/03/05 07:10:00;;;;;;;4.67;3.70;;;11.20;52.30;;;;;;5098113;28;20219;-75
2022/03/05 07:12:26;;;;;;;3.97;3.47;;;11.30;52.10;;;;;;5097950;28;20444;-75
2022/03/05 07:14:52;;;;;;;6.20;3.43;;;11.40;52.00;;;;;;5097635;28;20181;-75
2022/03/05 07:17:18;;;;;;;6.53;3.63;;;11.50;51.70;;;;;;5098454;28;20292;-75
2022/03/05 07:19:45;;;;;;;5.83;3.70;;;11.50;51.70;;;;;;5097100;28;20185;-76
2022/03/05 07:22:11;;;;;;;4.03;3.53;;;11.60;51.40;;;;;;5096840;28;20188;-75
2022/03/05 07:24:37;;;;;;;4.67;4.00;;;11.70;51.30;;;;;;5096624;28;20213;-75
2022/03/05 07:27:03;;;;;;;6.90;4.27;;;11.80;51.10;;;;;;5097752;28;20581;-75
2022/03/05 07:29:29;;;;;;;4.33;3.60;;;11.90;51.00;;;;;;5097806;28;20172;-76
2022/03/05 07:31:54;;;;;;;4.20;3.60;;;12.00;51.30;;;;;;5097515;28;20170;-76
2022/03/05 07:34:20;;;;;;;5.83;3.77;;;12.10;50.70;;;;;;5097104;28;20168;-75
2022/03/05 07:36:46;;;;;;;4.50;4.07;;;12.20;50.50;;;;;;5096550;28;20725;-76
2022/03/05 07:39:12;;;;;;;4.30;3.63;;;12.30;50.30;;;;;;5096582;28;20202;-75
2022/03/05 07:41:38;;;;;;;4.73;3.93;;;12.40;50.10;;;;;;5097440;28;20224;-75
2022/03/05 07:44:07;;;;;;;4.63;4.10;;;12.50;49.90;;;;;;5096530;28;20675;-75
2022/03/05 07:46:37;;;;;;;3.73;3.43;;;12.60;49.80;;;;;;5096392;28;20189;-75
2022/03/05 07:49:03;;;;;;;4.60;3.90;;;12.70;49.70;;;;;;5095957;28;20224;-75
2022/03/05 07:51:29;;;;;;;4.40;4.00;;;12.80;49.50;;;;;;5096133;28;20267;-75
2022/03/05 07:53:56;;;;;;;6.20;4.20;;;12.90;49.30;;;;;;5095256;28;20277;-75
2022/03/05 07:56:21;;;;;;;4.30;3.90;;;12.90;49.00;;;;;;5095439;28;20197;-75
2022/03/05 07:58:47;;;;;;;4.03;3.57;;;13.00;48.80;;;;;;5094827;28;20215;-75
2022/03/05 08:01:16;;;;;;;6.10;3.90;;;13.10;48.70;;;;;;5096176;28;20206;-75
2022/03/05 08:03:42;;;;;;;3.97;3.57;;;13.20;48.70;;;;;;5095383;28;20309;-75
2022/03/05 08:06:08;;;;;;;4.27;3.80;;;13.30;48.40;;;;;;5095775;28;20257;-76
2022/03/05 08:08:33;;;;;;;4.20;3.60;;;13.30;48.40;;;;;;5096183;28;20209;-75
2022/03/05 08:11:08;;;;;;;4.90;3.90;;;13.40;48.10;;;;;;5096086;28;20520;-75
2022/03/05 08:13:34;;;;;;;3.83;3.43;;;13.50;48.00;;;;;;5095200;28;20162;-75
2022/03/05 08:16:00;;;;;;;4.03;3.60;;;13.60;47.90;;;;;;5094194;28;20236;-75
2022/03/05 08:18:26;;;;;;;4.10;3.70;;;13.60;47.80;;;;;;5094240;28;20175;-75
2022/03/05 08:20:57;;;;;;;5.47;3.63;;;13.70;47.70;;;;;;5094848;28;20261;-76
2022/03/05 08:23:22;;;;;;;4.57;3.73;;;13.70;47.50;;;;;;5101376;28;20183;-76
2022/03/05 08:25:48;;;;;;;5.20;3.40;;;13.80;47.50;;;;;;5094317;28;20177;-76
2022/03/05 08:28:17;;;;;;;4.20;3.80;;;13.80;47.40;;;;;;5094846;28;20668;-76
2022/03/05 08:30:46;;;;;;;3.90;3.50;;;13.90;47.30;;;;;;5094321;28;20170;-75
2022/03/05 08:33:12;;;;;;;4.60;4.07;;;14.00;47.30;;;;;;5104372;28;20464;-76
2022/03/05 08:35:37;;;;;;;4.27;3.87;;;14.10;47.20;;;;;;5094392;28;20177;-74
2022/03/05 08:38:03;;;;;;;4.50;3.70;;;14.10;47.10;;;;;;5093874;28;20530;-76
2022/03/05 08:40:31;;;;;;;4.10;3.70;;;14.20;47.00;;;;;;5088907;28;20698;-76
2022/03/05 08:42:57;;;;;;;4.50;3.67;;;14.20;46.90;;;;;;5094263;28;20171;-76
2022/03/05 08:45:23;;;;;;;4.90;3.73;;;14.30;46.90;;;;;;5096626;28;20664;-76
2022/03/05 08:47:48;;;;;;;4.30;3.90;;;14.40;46.80;;;;;;5099642;28;20237;-76
2022/03/05 08:50:17;;;;;;;6.73;3.90;;;14.40;46.60;;;;;;5101376;28;20173;-77
2022/03/05 08:52:43;;;;;;;4.57;3.63;;;14.40;46.60;;;;;;5104957;28;20201;-76
2022/03/05 08:55:11;;;;;;;5.20;4.07;;;14.50;46.50;;;;;;5099789;28;20702;-76
2022/03/05 08:57:39;;;;;;;4.17;3.73;;;14.60;46.50;;;;;;5099515;28;20167;-74
2022/03/05 09:00:09;;;;;;;7.97;3.90;;;14.60;46.30;;;;;;5099307;28;20269;-76
2022/03/05 09:02:35;;;;;;;5.63;3.90;;;14.70;46.20;;;;;;5099844;28;20528;-76
2022/03/05 09:05:00;;;;;;;4.30;3.90;;;14.80;46.20;;;;;;5098485;28;20219;-77
2022/03/05 09:07:26;;;;;;;5.27;3.97;;;14.80;46.10;;;;;;5097838;28;20189;-76
2022/03/05 09:09:54;;;;;;;4.43;4.03;;;14.90;46.10;;;;;;5095933;28;20187;-76
2022/03/05 09:12:19;;;;;;;6.23;3.83;;;15.00;46.10;;;;;;5098175;28;20177;-76
2022/03/05 09:14:48;;;;;;;4.97;4.37;;;15.00;46.00;;;;;;5097261;28;20193;-75
2022/03/05 09:17:15;;;;;;;5.00;4.10;;;15.10;46.10;;;;;;5094614;28;20247;-76
2022/03/05 09:19:47;;;;;;;4.30;3.90;;;15.20;46.10;;;;;;5112173;28;20272;-76
2022/03/05 09:22:13;;;;;;;5.20;3.93;;;15.20;46.00;;;;;;5105201;28;20187;-76
2022/03/05 09:24:38;;;;;;;5.10;4.23;;;15.20;46.00;;;;;;5098079;28;20772;-76
2022/03/05 09:27:05;;;;;;;5.50;4.50;;;15.30;46.00;;;;;;5097356;28;20640;-76
2022/03/05 09:29:37;;;;;;;4.80;4.30;;;15.30;46.00;;;;;;5098395;28;20276;-73
2022/03/05 09:32:03;;;;;;;6.23;4.90;;;15.20;46.00;;;;;;5098303;28;20575;-73
2022/03/05 09:34:29;;;;;;;4.77;4.20;;;14.90;46.10;;;;;;5098149;28;20231;-73
2022/03/05 09:36:55;;;;;;;5.40;4.40;;;14.50;46.50;;;;;;5097626;28;20191;-73
2022/03/05 09:39:21;;;;;;;5.97;4.80;;;14.30;47.00;;;;;;5098673;28;20167;-74
2022/03/05 09:41:47;;;;;;;5.67;4.27;;;14.00;47.40;;;;;;5099251;28;20209;-74
2022/03/05 09:44:13;;;;;;;6.27;5.00;;;13.80;47.80;;;;;;5097891;28;20204;-74
2022/03/05 09:46:41;;;;;;;5.77;4.60;;;13.70;48.00;;;;;;5091565;28;20175;-75
2022/03/05 09:49:08;;;;;;;6.53;4.37;;;13.60;48.30;;;;;;5087802;28;20463;-75
2022/03/05 09:51:34;;;;;;;6.07;4.87;;;13.50;48.50;;;;;;5093973;28;20217;-75
2022/03/05 09:54:02;;;;;;;6.23;4.70;;;13.50;48.70;;;;;;5096695;28;20185;-74
2022/03/05 09:56:33;;;;;;;4.97;4.13;;;13.50;48.90;;;;;;5110868;28;20281;-75
2022/03/05 09:58:59;;;;;;;4.83;4.27;;;13.40;49.00;;;;;;5097999;28;20175;-75
2022/03/05 10:01:25;;;;;;;6.07;4.83;;;13.40;49.10;;;;;;5097167;28;20171;-75
2022/03/05 10:03:53;;;;;;;5.33;4.20;;;13.40;49.30;;;;;;5096689;28;20198;-76
2022/03/05 10:06:24;;;;;;;6.47;4.50;;;13.40;49.30;;;;;;5095696;28;20175;-75
2022/03/05 10:08:55;;;;;;;5.00;4.50;;;13.40;49.40;;;;;;5096894;28;20181;-75
2022/03/05 10:11:22;;;;;;;6.27;4.50;;;13.40;49.50;;;;;;5097968;28;20198;-75
2022/03/05 10:13:48;;;;;;;5.60;4.40;;;13.40;49.70;;;;;;5097913;28;20595;-75
2022/03/05 10:16:25;;;;;;;5.10;4.43;;;13.50;49.70;;;;;;5096115;28;20175;-75
2022/03/05 10:18:51;;;;;;;6.33;4.60;;;13.50;49.80;;;;;;5096724;28;20169;-75
2022/03/05 10:21:29;;;;;;;5.30;4.80;;;13.50;49.80;;;;;;5096715;28;20487;-75
2022/03/05 10:24:09;;;;;;;5.77;4.83;;;13.50;49.80;;;;;;5098028;28;20602;-75
2022/03/05 10:26:55;;;;;;;4.93;4.43;;;13.50;49.90;;;;;;5096195;28;20208;-75
2022/03/05 10:29:35;;;;;;;7.73;4.70;;;13.50;49.90;;;;;;5096681;28;20175;-75
2022/03/05 10:32:07;;;;;;;8.37;5.33;;;13.50;49.90;;;;;;5096962;28;20163;-75
2022/03/05 10:34:41;;;;;;;6.20;4.83;;;13.50;49.90;;;;;;5095469;28;20733;-75
2022/03/05 10:37:08;;;;;;;6.23;4.70;;;13.50;50.00;;;;;;5096700;28;20186;-75
2022/03/05 10:39:34;;;;;;;7.90;4.80;;;13.50;50.10;;;;;;5096159;28;20189;-75
2022/03/05 10:42:00;;;;;;;9.07;4.90;;;13.50;50.20;;;;;;5094179;28;20179;-76
2022/03/05 10:44:26;;;;;;;6.40;5.17;;;13.60;50.10;;;;;;5075222;28;20852;-75
2022/03/05 10:47:00;;;;;;;5.47;4.70;;;13.60;50.00;;;;;;5074385;28;20169;-75
2022/03/05 10:49:35;;;;;;;6.23;4.90;;;13.60;50.00;;;;;;5076847;28;20185;-75
2022/03/05 10:52:08;;;;;;;5.77;4.97;;;13.60;49.90;;;;;;5090881;28;20171;-75
2022/03/05 10:54:44;;;;;;;10.27;5.30;;;13.60;49.80;;;;;;5099175;28;20300;-75
2022/03/05 10:57:19;;;;;;;6.10;4.70;;;13.60;49.70;;;;;;5095354;28;20174;-75
2022/03/05 10:59:52;;;;;;;6.90;4.77;;;13.60;49.50;;;;;;5094588;28;20166;-75
2022/03/05 11:02:19;;;;;;;7.57;4.90;;;13.60;49.40;;;;;;5094803;28;20166;-75
2022/03/05 11:04:57;;;;;;;10.20;5.23;;;13.70;49.30;;;;;;5094822;28;20603;-75
2022/03/05 11:07:23;;;;;;;6.90;4.67;;;13.70;49.20;;;;;;5094581;28;20255;-75
2022/03/05 11:09:50;;;;;;;5.60;4.60;;;13.70;49.10;;;;;;5091853;28;20179;-74
2022/03/05 11:12:19;;;;;;;11.33;5.07;;;13.70;49.20;;;;;;5094407;28;20174;-75
2022/03/05 11:14:50;;;;;;;6.70;4.80;;;13.70;49.20;;;;;;5094864;28;20202;-75
2022/03/05 11:17:16;;;;;;;5.97;4.57;;;13.70;49.10;;;;;;5095903;28;20205;-75
2022/03/05 11:19:43;;;;;;;6.93;5.03;;;13.70;49.10;;;;;;5096268;28;20179;-75
2022/03/05 11:22:11;;;;;;;7.13;4.80;;;13.70;49.10;;;;;;5095392;28;20171;-75
2022/03/05 11:24:42;;;;;;;5.33;4.40;;;13.70;49.10;;;;;;5095074;28;20206;-75
2022/03/05 11:27:13;;;;;;;5.93;4.50;;;13.70;49.10;;;;;;5095587;28;20686;-75
2022/03/05 11:29:58;;;;;;;7.73;4.57;;;13.70;49.10;;;;;;5095226;28;20173;-75
2022/03/05 11:32:30;;;;;;;9.60;4.87;;;13.70;49.20;;;;;;5074763;28;20175;-75
2022/03/05 11:34:55;;;;;;;8.30;4.80;;;13.70;49.20;;;;;;5094965;28;20181;-75
2022/03/05 11:37:34;;;;;;;6.13;4.13;;;13.70;49.20;;;;;;5094116;28;20191;-74
2022/03/05 11:40:02;;;;;;;5.73;4.30;;;13.70;49.20;;;;;;5094916;28;20232;-75
2022/03/05 11:42:35;;;;;;;6.23;4.40;;;13.70;49.30;;;;;;5093330;28;20177;-75
2022/03/05 11:45:26;;;;;;;6.77;4.47;;;13.70;49.30;;;;;;5094212;28;20290;-75
2022/03/05 11:47:51;;;;;;;6.77;4.20;;;13.80;49.30;;;;;;5093385;28;20173;-75
2022/03/05 11:50:17;;;;;;;5.83;4.17;;;13.70;49.40;;;;;;5094649;28;20258;-75
2022/03/05 11:52:46;;;;;;;6.53;4.40;;;13.70;49.40;;;;;;5077047;28;20187;-75
2022/03/05 11:55:26;;;;;;;5.60;3.80;;;13.70;49.50;;;;;;5094510;28;20177;-75
2022/03/05 11:57:51;;;;;;;5.57;4.03;;;13.80;49.60;;;;;;5094188;28;20197;-75
2022/03/05 12:00:36;;;;;;;5.07;3.80;;;13.80;49.60;;;;;;5093244;28;20655;-75
2022/03/05 12:03:03;;;;;;;4.73;3.87;;;13.80;49.80;;;;;;5095277;28;20193;-75
2022/03/05 12:05:38;;;;;;;5.80;4.07;;;13.80;49.90;;;;;;5096940;28;20226;-75
2022/03/05 12:08:34;;;;;;;4.60;3.63;;;13.80;49.90;;;;;;5089949;28;20257;-75
2022/03/05 12:11:16;;;;;;;7.33;4.00;;;13.80;49.90;;;;;;5082569;28;20182;-75
2022/03/05 12:13:54;;;;;;;4.90;3.90;;;13.80;49.80;;;;;;5084563;28;20211;-75
2022/03/05 12:16:26;;;;;;;6.20;4.00;;;13.80;49.80;;;;;;5091719;28;20329;-75
2022/03/05 12:18:54;;;;;;;4.20;3.67;;;13.80;49.90;;;;;;5073312;28;20181;-75
2022/03/05 12:21:31;;;;;;;5.03;3.83;;;13.80;49.90;;;;;;5079974;28;20173;-75
2022/03/05 12:24:09;;;;;;;4.60;3.87;;;13.80;50.00;;;;;;5093034;28;20656;-75
2022/03/05 12:26:43;;;;;;;4.83;3.30;;;13.80;50.00;;;;;;5093223;28;20253;-75
2022/03/05 12:29:10;;;;;;;5.83;4.07;;;13.80;50.00;;;;;;5093050;28;20171;-75
2022/03/05 12:31:40;;;;;;;4.67;3.47;;;13.80;50.10;;;;;;5093426;28;20320;-75
2022/03/05 12:34:08;;;;;;;5.20;3.50;;;13.80;50.10;;;;;;5097460;28;20292;-76
2022/03/05 12:36:40;;;;;;;4.47;3.43;;;13.80;50.20;;;;;;5093612;28;20171;-75
2022/03/05 12:39:06;;;;;;;3.77;3.27;;;13.80;50.20;;;;;;5092901;28;20160;-75
2022/03/05 12:41:31;;;;;;;4.90;3.67;;;13.80;50.20;;;;;;5092629;28;20168;-75
2022/03/05 12:43:57;;;;;;;4.30;3.50;;;13.80;50.20;;;;;;5093975;28;20254;-75
2022/03/05 12:46:23;;;;;;;4.00;3.20;;;13.80;50.30;;;;;;5093432;28;20179;-76
2022/03/05 12:48:49;;;;;;;4.83;3.33;;;13.80;50.30;;;;;;5093301;28;20171;-75
2022/03/05 12:51:15;;;;;;;5.07;3.30;;;13.80;50.30;;;;;;5092672;28;20180;-75
2022/03/05 12:53:42;;;;;;;4.27;3.10;;;13.80;50.40;;;;;;5093033;28;20169;-75
2022/03/05 12:56:08;;;;;;;5.37;3.20;;;13.80;50.40;;;;;;5093212;28;20182;-75